Rhinecliff, NY (12574)

12:54 AM EDT on April 26, 2017 (GMT -0400)
Rondout Weather | | Change Station

Elev 138 ft 41.92 °N, 73.99 °W | Updated 7 seconds ago

Overcast
Overcast
50.4 °F
Feels Like 50.4 °F
N
1.0
Wind Variable Wind from NE
Gusts 5.0 mph

Today
High -- | Low -- °F
--% Chance of Precip.
Yesterday
High -- | Low -- °F
Precip. -- in
Pressure 29.90 in
Visibility 5.0 miles
Clouds Overcast 1100 ft
Dew Point 49 °F
Humidity 95%
Rainfall 0.00 in
Snow Depth Not available.
5:58 AM 7:49 PM
Waning Crescent, 0% visible
SPECI KPOU 260433Z AUTO 01004KT 5SM BR OVC011 10/09 A2990 RMK AO2 T01000094
Pressure 29.90 in
Visibility 5.0 miles
Clouds Overcast 1100 ft
Dew Point 49 °F
Humidity 95%
Rainfall 0.00 in
Snow Depth Not available.
5:58 AM 7:49 PM
Waning Crescent, 0% visible
SPECI KPOU 260433Z AUTO 01004KT 5SM BR OVC011 10/09 A2990 RMK AO2 T01000094

Get Severe Weather Alerts

Thanks for signing up!

Be on the lookout for a verification email in your inbox.

You'll start receiving the daily forecast at 8 AM.

×

10-Day Weather Forecast

Almanac

Astronomy

Apr. 26, 2017 Rise Set
Actual Time
Civil Twilight
Nautical Twilight
Astronomical Twilight
Moon
Length of Visible Light
Length of Day
Tomorrow will be .
, % of the Moon is Illuminated

Today's Extremes

State Highs State Lows

Community

WunderPhotos

WunderBlog® & News

Nearby

Air Quality

  Air Quality AQ Index Pollutant
Not available.

Snow Depth

Station Depth Elevation

Earthquake Activity

City Distance Mag. Time & Date
Minimum magnitude displayed is 2.5.

Coastal Water Temperatures

Place Temperature

Stations

Nearby Weather Stations

Station Location Temp. Windchill Dew Point Humidity Wind Precip. Elev Updated Type
                   

Watches & Warnings

There are currently no watches in effect.